Hanalei, Hawaii
Current Conditions -  °F | °C
As of 4:53 PM on Friday 28 Nov 2014 (Local Time) from PHLI Reporting Station
Broken Clouds Broken Clouds  
Wind Chill: 75°   Ceiling: 3400
Heat Index: 75°   Visibility: 10mi
Dew Point: 65°   Wind: 17mph
Humidity: 71%   Direction: 50°NE
Pressure: 30.05"   Gusts: NA
Location:  22.2°N, 159.49°W
Report Text: PHLI 290253Z 05015KT 10SM FEW025 SCT029 BKN034 24/18 A3005 RMK AO2 SLP173 T02390183 53002 $
Loading
Personal Weather Stations






























Interactive Weather Map New forecast layout! Learn more

10-Day Weather Forecast

Advertisements
Track Severe Weather on mobile